Detroit, Michigan
Traffic Map
Current Weather Conditions
Detroit, Michigan
Broken Clouds
Broken Clouds
32°
Feels Like: 22°
Wind Chill: 22° Ceiling: 25000
Heat Index: 32° Visibility: 12mi
Dew Point: 25° Wind: 14mph
Humidity: 75% Direction: 230° (SW)
Pressure: 29.85in Gusts: 21mph
Raw Report DataCYQG 201200Z 23012G18KT 12SM SCT200 BKN250 00/M04 A2985 RMK CC4CI2 SLP115
Traffic Incident Summary
Active as of:
Severity:
Category:
InformationThere was an issue retrieving the traffic information for this location. Please try a different location or try again shortly.
Advertisements